Time;durP1;ratioP1;P1;durP2;ratioP2;P2;SDS_P1;SDS_P2;PMS_P1;PMS_P2;Temp;Humidity;BMP_temperature;BMP_pressure;BME280_temperature;BME280_humidity;BME280_pressure;Samples;Min_cycle;Max_cycle;Signal;HPM_P1;HPM_P2
2022/10/23 00:04:46;;;;;;;0.40;0.40;;;;;;;13.90;70.64;100913.84;18297174;32;20145;-57
2022/10/23 00:14:49;;;;;;;1.58;1.33;;;;;;;13.83;69.50;100919.13;18298723;32;20513;-57
2022/10/23 00:24:53;;;;;;;0.30;0.30;;;;;;;13.32;72.71;100927.28;18298034;32;20105;-57
2022/10/23 00:34:56;;;;;;;3.03;0.88;;;;;;;13.45;70.62;100938.63;18297874;32;20097;-57
2022/10/23 00:45:18;;;;;;;1.08;0.98;;;;;;;13.39;70.38;100943.84;18298980;32;20112;-57
2022/10/23 00:55:23;;;;;;;1.70;0.90;;;;;;;13.34;70.23;100943.00;18297218;32;20149;-57
2022/10/23 01:05:32;;;;;;;1.27;1.17;;;;;;;13.07;74.53;100966.69;18294583;32;20116;-57
2022/10/23 01:15:38;;;;;;;1.08;1.08;;;;;;;13.32;73.27;100964.00;18295347;32;20113;-57
2022/10/23 01:26:01;;;;;;;0.68;0.68;;;;;;;13.53;70.59;100989.28;18295747;32;20140;-57
2022/10/23 01:36:08;;;;;;;1.20;0.93;;;;;;;12.88;73.81;100999.97;18300494;32;20114;-57
2022/10/23 01:46:13;;;;;;;0.80;0.80;;;;;;;13.39;71.77;101017.28;18306025;32;20390;-57
2022/10/23 01:56:22;;;;;;;0.60;0.60;;;;;;;13.27;71.29;101008.59;18305616;32;20089;-57
2022/10/23 02:06:25;;;;;;;0.85;0.80;;;;;;;13.34;70.16;101011.19;18305496;32;20085;-57
2022/10/23 02:16:35;;;;;;;0.37;0.37;;;;;;;12.94;70.19;101020.88;18272548;32;20137;-57
2022/10/23 02:26:40;;;;;;;1.10;1.10;;;;;;;13.09;70.42;101022.63;18241383;32;20415;-57
2022/10/23 02:36:44;;;;;;;0.50;0.50;;;;;;;13.04;69.16;101013.91;18240918;32;20097;-57
2022/10/23 02:46:51;;;;;;;1.40;1.30;;;;;;;12.82;68.66;101013.94;18239765;32;20090;-57
2022/10/23 02:57:04;;;;;;;2.17;1.33;;;;;;;12.51;68.40;101028.81;18240290;32;20461;-57
2022/10/23 03:07:10;;;;;;;1.80;0.75;;;;;;;12.32;68.70;101039.28;18239992;32;20109;-57
2022/10/23 03:17:15;;;;;;;0.80;0.73;;;;;;;12.25;68.39;101043.66;18239870;32;20363;-57
2022/10/23 03:27:18;;;;;;;1.02;0.70;;;;;;;12.03;68.45;101050.59;18239557;32;20114;-57
2022/10/23 03:37:23;;;;;;;1.55;1.12;;;;;;;11.61;68.55;101060.87;18239588;32;20160;-57
2022/10/23 03:47:26;;;;;;;0.45;0.45;;;;;;;11.48;68.21;101067.78;18239307;32;20108;-57
2022/10/23 03:57:31;;;;;;;0.75;0.75;;;;;;;11.32;68.03;101066.84;18238674;32;20188;-57
2022/10/23 04:07:34;;;;;;;0.70;0.70;;;;;;;11.08;68.09;101078.88;18238629;32;20121;-56
2022/10/23 04:17:38;;;;;;;0.75;0.75;;;;;;;11.05;67.83;101084.09;18238444;32;20105;-57
2022/10/23 04:27:41;;;;;;;0.80;0.80;;;;;;;10.89;67.68;101089.19;18237686;32;20150;-56
2022/10/23 04:37:46;;;;;;;1.30;1.30;;;;;;;10.62;67.84;101080.31;18237958;32;20097;-57
2022/10/23 04:47:52;;;;;;;0.95;0.95;;;;;;;10.31;68.53;101063.47;18236582;32;20102;-57
2022/10/23 04:57:56;;;;;;;0.60;0.60;;;;;;;10.04;69.85;101075.34;18236674;32;20156;-56
2022/10/23 05:08:00;;;;;;;0.80;0.80;;;;;;;10.31;68.77;101077.37;18236100;32;20098;-57
2022/10/23 05:18:09;;;;;;;0.60;0.60;;;;;;;10.39;68.04;101073.09;18242970;32;20117;-57
2022/10/23 05:28:12;;;;;;;0.60;0.60;;;;;;;10.36;68.07;101093.97;18243133;32;20133;-56
2022/10/23 05:38:16;;;;;;;0.70;0.70;;;;;;;10.37;68.62;101103.53;18242573;32;20446;-57
2022/10/23 05:48:20;;;;;;;1.35;1.25;;;;;;;10.45;69.45;101102.78;18251491;32;20094;-57
2022/10/23 05:58:38;;;;;;;0.60;0.60;;;;;;;10.76;69.25;101105.66;18304961;32;20097;-57
2022/10/23 06:08:41;;;;;;;1.90;1.77;;;;;;;10.93;69.62;101122.34;18305078;32;20112;-57
2022/10/23 06:18:46;;;;;;;0.55;0.55;;;;;;;10.98;71.04;101135.44;18304066;32;20123;-57
2022/10/23 06:28:49;;;;;;;2.25;1.60;;;;;;;11.31;70.79;101149.59;18304275;32;20098;-57
2022/10/23 06:38:55;;;;;;;1.05;1.05;;;;;;;11.60;71.29;101148.03;18304713;32;20093;-57
2022/10/23 06:48:58;;;;;;;0.80;0.80;;;;;;;11.86;71.86;101163.88;18301058;32;20121;-58
2022/10/23 06:59:06;;;;;;;0.50;0.45;;;;;;;12.19;72.17;101154.44;18303424;32;20120;-57
2022/10/23 07:09:09;;;;;;;1.83;0.82;;;;;;;12.05;75.96;101166.59;18302931;32;20096;-57
2022/10/23 07:19:14;;;;;;;0.70;0.70;;;;;;;12.59;74.10;101168.50;18302913;32;20123;-56
2022/10/23 07:29:17;;;;;;;0.52;0.52;;;;;;;12.96;72.87;101180.75;18302799;32;20121;-56
2022/10/23 07:39:21;;;;;;;0.60;0.60;;;;;;;13.27;72.39;101179.00;18299460;32;20120;-56
2022/10/23 07:49:25;;;;;;;0.95;0.75;;;;;;;12.83;73.99;101177.25;18302033;32;20119;-56
2022/10/23 07:59:29;;;;;;;1.17;0.82;;;;;;;12.56;76.16;101174.59;18301296;32;20085;-56
2022/10/23 08:09:39;;;;;;;0.73;0.55;;;;;;;13.47;72.96;101178.12;18301741;32;20117;-56
2022/10/23 08:19:45;;;;;;;0.40;0.40;;;;;;;14.05;71.19;101188.47;18302371;32;20369;-56
2022/10/23 08:29:48;;;;;;;1.27;0.82;;;;;;;13.97;72.14;101183.25;18301095;32;20155;-57
2022/10/23 08:39:53;;;;;;;1.00;0.95;;;;;;;14.24;71.95;101178.75;18300364;32;20389;-56
2022/10/23 08:49:59;;;;;;;1.37;1.27;;;;;;;14.33;72.00;101172.59;18300409;32;20097;-56
2022/10/23 09:00:07;;;;;;;1.45;0.80;;;;;;;13.81;74.53;101187.66;18300024;32;20163;-56
2022/10/23 09:10:36;;;;;;;1.15;1.02;;;;;;;14.10;75.33;101177.06;18300152;32;20086;-56
2022/10/23 09:20:42;;;;;;;1.33;1.20;;;;;;;15.16;71.06;101170.25;18295906;32;20188;-56
2022/10/23 09:30:45;;;;;;;3.22;2.10;;;;;;;15.37;70.63;101177.97;18302328;32;20167;-56
2022/10/23 09:40:50;;;;;;;0.40;0.40;;;;;;;14.70;72.61;101185.47;18301408;32;20506;-56
2022/10/23 09:50:55;;;;;;;0.47;0.47;;;;;;;15.58;70.61;101169.88;18299977;32;20464;-56
2022/10/23 10:00:59;;;;;;;0.80;0.80;;;;;;;15.56;71.06;101167.25;18306311;32;20101;-56
2022/10/23 10:11:07;;;;;;;1.95;0.95;;;;;;;16.12;69.58;101165.75;18308414;32;20097;-58
2022/10/23 10:21:17;;;;;;;1.77;0.75;;;;;;;16.11;70.73;101162.25;18307828;32;20142;-57
2022/10/23 10:31:24;;;;;;;0.68;0.68;;;;;;;16.47;70.28;101149.44;18307324;32;20457;-57
2022/10/23 10:41:48;;;;;;;1.87;0.88;;;;;;;16.92;71.10;101121.50;18307301;32;20089;-57
2022/10/23 10:51:58;;;;;;;1.75;0.85;;;;;;;18.13;66.52;101105.13;18307049;32;20092;-57
2022/10/23 11:02:12;;;;;;;0.77;0.77;;;;;;;18.57;64.83;101083.84;18306722;32;20089;-58
2022/10/23 11:12:18;;;;;;;0.10;0.10;;;;;;;19.52;61.91;101076.94;18305614;32;20448;-57
2022/10/23 11:22:26;;;;;;;0.50;0.50;;;;;;;19.52;60.11;101063.69;18303623;32;72245;-58
2022/10/23 11:32:46;;;;;;;0.73;0.40;;;;;;;20.15;57.35;101048.62;18305872;32;20384;-58
2022/10/23 11:42:51;;;;;;;0.65;0.65;;;;;;;20.03;57.83;101040.16;18305858;32;20136;-58
2022/10/23 11:53:09;;;;;;;0.45;0.45;;;;;;;20.08;57.83;101040.00;18305574;32;20089;-58
2022/10/23 12:03:23;;;;;;;0.20;0.20;;;;;;;20.58;55.79;101026.00;18304789;32;20125;-57
2022/10/23 12:13:30;;;;;;;0.20;0.20;;;;;;;20.82;54.56;101018.12;18302387;32;20385;-57
2022/10/23 12:24:04;;;;;;;0.15;0.15;;;;;;;20.31;55.89;101012.75;18305197;32;20111;-57
2022/10/23 12:34:14;;;;;;;0.47;0.37;;;;;;;20.59;55.73;101001.19;18304095;32;20109;-57
2022/10/23 12:44:21;;;;;;;0.73;0.40;;;;;;;20.88;54.97;100986.06;18303901;32;20082;-57
2022/10/23 12:54:25;;;;;;;0.45;0.45;;;;;;;20.81;54.46;100979.22;18303412;32;20717;-57
2022/10/23 13:04:31;;;;;;;0.20;0.20;;;;;;;20.85;54.40;100972.03;18302466;32;20114;-57
2022/10/23 13:14:36;;;;;;;0.45;0.30;;;;;;;20.57;54.77;100962.37;18302366;32;20112;-57
2022/10/23 13:24:47;;;;;;;0.30;0.30;;;;;;;20.55;54.66;100962.44;18302784;32;20347;-57
2022/10/23 13:34:51;;;;;;;0.10;0.10;;;;;;;20.44;53.85;100943.38;18306417;32;20427;-57
2022/10/23 13:45:19;;;;;;;0.35;0.25;;;;;;;20.26;54.90;100935.16;18308569;32;20186;-57
2022/10/23 13:55:24;;;;;;;1.27;0.35;;;;;;;20.16;55.72;100945.22;18308516;32;20101;-57
2022/10/23 14:05:28;;;;;;;0.20;0.20;;;;;;;19.96;56.62;100928.16;18307245;32;20104;-57
2022/10/23 14:15:32;;;;;;;0.40;0.40;;;;;;;19.92;57.18;100921.22;18306719;32;20141;-57
2022/10/23 14:25:36;;;;;;;0.20;0.20;;;;;;;19.90;57.25;100916.88;18307695;32;20093;-57
2022/10/23 14:35:39;;;;;;;0.40;0.37;;;;;;;20.05;56.39;100920.81;18307328;32;20097;-57
2022/10/23 14:45:44;;;;;;;0.20;0.20;;;;;;;19.78;57.81;100911.06;18306884;32;20416;-57
2022/10/23 14:55:47;;;;;;;0.10;0.10;;;;;;;19.79;58.00;100910.16;18303222;32;20094;-56
2022/10/23 15:05:52;;;;;;;0.20;0.20;;;;;;;19.65;58.68;100896.50;18306786;32;20461;-57
2022/10/23 15:16:03;;;;;;;0.25;0.25;;;;;;;19.82;58.40;100895.94;18306645;32;20105;-57
2022/10/23 15:26:09;;;;;;;0.75;0.32;;;;;;;19.51;59.07;100889.00;18306640;32;20086;-57
2022/10/23 15:36:12;;;;;;;0.10;0.10;;;;;;;19.26;60.49;100853.59;18306042;32;20090;-57
2022/10/23 15:46:17;;;;;;;0.20;0.20;;;;;;;19.30;60.29;100856.12;18305944;32;20155;-57
2022/10/23 15:56:21;;;;;;;0.20;0.20;;;;;;;19.24;60.52;100865.97;18304836;32;20141;-57
2022/10/23 16:06:25;;;;;;;0.32;0.32;;;;;;;19.12;61.19;100871.66;18305096;32;20121;-57
2022/10/23 16:16:29;;;;;;;1.02;0.65;;;;;;;19.01;61.07;100874.63;18304683;32;20367;-57
2022/10/23 16:26:34;;;;;;;0.55;0.35;;;;;;;19.04;61.29;100894.84;18304231;32;20129;-57
2022/10/23 16:36:38;;;;;;;2.05;1.17;;;;;;;18.94;61.42;100908.31;18302699;32;20152;-57
2022/10/23 16:46:42;;;;;;;1.42;0.40;;;;;;;18.93;61.88;100911.84;18302379;32;20109;-57
2022/10/23 16:56:47;;;;;;;0.75;0.65;;;;;;;18.79;62.65;100919.34;18301202;32;20133;-57
2022/10/23 17:06:54;;;;;;;0.43;0.43;;;;;;;18.49;64.26;100909.56;18297130;32;20509;-57
2022/10/23 17:16:59;;;;;;;0.80;0.75;;;;;;;18.68;63.58;100928.41;18292344;32;20104;-57
2022/10/23 17:27:04;;;;;;;1.15;1.05;;;;;;;18.68;63.72;100941.63;18287676;32;20109;-56
2022/10/23 17:37:09;;;;;;;0.32;0.32;;;;;;;18.41;64.95;100924.75;18296648;32;20422;-57
2022/10/23 17:47:14;;;;;;;0.20;0.20;;;;;;;18.51;64.70;100920.09;18288204;32;20112;-56
2022/10/23 17:57:18;;;;;;;0.85;0.68;;;;;;;18.43;64.91;100910.59;18295233;32;20112;-56
2022/10/23 18:07:25;;;;;;;0.22;0.22;;;;;;;18.38;64.83;100893.12;18296181;32;20131;-57
2022/10/23 18:17:28;;;;;;;0.75;0.65;;;;;;;18.16;65.39;100899.84;18298448;32;20116;-57
2022/10/23 18:27:34;;;;;;;0.80;0.45;;;;;;;18.27;65.06;100898.69;18304610;32;20796;-57
2022/10/23 18:37:38;;;;;;;0.40;0.40;;;;;;;18.29;65.11;100902.16;18294347;32;20141;-57
2022/10/23 18:47:45;;;;;;;1.00;0.90;;;;;;;18.27;65.27;100903.97;18302789;32;20125;-57
2022/10/23 18:57:48;;;;;;;0.30;0.30;;;;;;;18.18;65.59;100899.81;18299769;32;20104;-57
2022/10/23 19:07:54;;;;;;;0.30;0.30;;;;;;;18.10;66.25;100892.06;18265303;32;20385;-57
2022/10/23 19:17:58;;;;;;;0.82;0.82;;;;;;;18.23;66.01;100907.63;18295237;32;20081;-57
2022/10/23 19:28:03;;;;;;;1.02;0.70;;;;;;;18.26;65.77;100908.41;18303336;32;20108;-57
2022/10/23 19:38:07;;;;;;;0.30;0.30;;;;;;;18.20;66.10;100916.50;18239686;32;20114;-57
2022/10/23 19:48:12;;;;;;;0.62;0.62;;;;;;;18.30;65.76;100898.59;18239790;32;20117;-57
2022/10/23 19:58:18;;;;;;;0.25;0.25;;;;;;;18.32;66.09;100888.00;18239038;32;20112;-57
2022/10/23 20:08:27;;;;;;;0.37;0.37;;;;;;;18.31;65.97;100905.66;18267727;32;20410;-57
2022/10/23 20:18:37;;;;;;;0.30;0.30;;;;;;;18.47;65.50;100905.22;18300582;32;20662;-57
2022/10/23 20:28:43;;;;;;;0.30;0.30;;;;;;;18.34;65.93;100910.84;18297358;32;20090;-57
2022/10/23 20:38:46;;;;;;;0.55;0.35;;;;;;;18.24;66.75;100904.06;18298523;32;20120;-57
2022/10/23 20:48:51;;;;;;;0.80;0.43;;;;;;;18.33;66.17;100903.84;18304152;32;20147;-57
2022/10/23 20:58:54;;;;;;;0.20;0.20;;;;;;;18.24;66.30;100882.94;18303211;32;20090;-57
2022/10/23 21:09:03;;;;;;;0.50;0.50;;;;;;;18.03;66.62;100864.94;18274712;32;20427;-56
2022/10/23 21:19:07;;;;;;;0.30;0.30;;;;;;;17.95;66.25;100866.03;18238643;32;20094;-57
2022/10/23 21:29:12;;;;;;;0.28;0.28;;;;;;;17.79;66.51;100858.50;18247192;32;20094;-57
2022/10/23 21:39:20;;;;;;;0.52;0.52;;;;;;;17.60;67.20;100855.47;18237728;32;20122;-57
2022/10/23 21:49:25;;;;;;;0.20;0.20;;;;;;;17.62;67.09;100849.22;18238152;32;20352;-57
2022/10/23 21:59:28;;;;;;;0.20;0.20;;;;;;;17.66;67.04;100876.41;18245511;32;20164;-56
2022/10/23 22:09:36;;;;;;;0.40;0.40;;;;;;;17.66;67.53;100870.28;18246468;32;20116;-56
2022/10/23 22:19:39;;;;;;;0.30;0.30;;;;;;;17.66;67.63;100847.37;18245188;32;20351;-56
2022/10/23 22:29:44;;;;;;;0.43;0.43;;;;;;;17.73;67.41;100866.56;18244803;32;20103;-57
2022/10/23 22:39:50;;;;;;;0.20;0.20;;;;;;;17.69;67.82;100872.81;18244504;32;20093;-57
2022/10/23 22:49:55;;;;;;;0.60;0.60;;;;;;;17.56;68.54;100873.12;18245426;32;20094;-59
2022/10/23 22:59:58;;;;;;;0.30;0.30;;;;;;;17.66;68.05;100870.28;18243803;32;20504;-59
2022/10/23 23:10:03;;;;;;;0.47;0.47;;;;;;;17.67;68.20;100872.00;18243110;32;20429;-59
2022/10/23 23:20:07;;;;;;;0.55;0.50;;;;;;;17.32;69.77;100850.84;18243178;32;20189;-59
2022/10/23 23:30:12;;;;;;;0.30;0.30;;;;;;;17.51;69.26;100859.16;18243238;32;20089;-59
2022/10/23 23:40:15;;;;;;;0.50;0.50;;;;;;;17.17;71.10;100844.13;18243913;32;20125;-59
2022/10/23 23:50:20;;;;;;;0.52;0.30;;;;;;;17.66;69.05;100852.62;18242508;32;20190;-59
